sensor_id;sensor_type;location;lat;lon;timestamp;temperature;humidity
16663;DHT22;8445;51.270;9.434;2023-12-04T00:01:49;-0.70;72.50
16663;DHT22;8445;51.270;9.434;2023-12-04T00:04:15;-0.70;72.60
16663;DHT22;8445;51.270;9.434;2023-12-04T00:06:41;-0.70;72.50
16663;DHT22;8445;51.270;9.434;2023-12-04T00:09:08;-0.70;72.30
16663;DHT22;8445;51.270;9.434;2023-12-04T00:11:34;-0.70;72.20
16663;DHT22;8445;51.270;9.434;2023-12-04T00:13:59;-0.70;72.30
16663;DHT22;8445;51.270;9.434;2023-12-04T00:16:26;-0.70;72.40
16663;DHT22;8445;51.270;9.434;2023-12-04T00:18:52;-0.70;72.30
16663;DHT22;8445;51.270;9.434;2023-12-04T00:21:18;-0.70;72.20
16663;DHT22;8445;51.270;9.434;2023-12-04T00:23:44;-0.70;72.20
16663;DHT22;8445;51.270;9.434;2023-12-04T00:26:10;-0.70;72.20
16663;DHT22;8445;51.270;9.434;2023-12-04T00:28:36;-0.70;72.30
16663;DHT22;8445;51.270;9.434;2023-12-04T00:31:03;-0.70;72.30
16663;DHT22;8445;51.270;9.434;2023-12-04T00:33:30;-0.70;72.10
16663;DHT22;8445;51.270;9.434;2023-12-04T00:35:57;-0.70;72.20
16663;DHT22;8445;51.270;9.434;2023-12-04T00:38:23;-0.70;72.20
16663;DHT22;8445;51.270;9.434;2023-12-04T00:40:48;-0.60;72.00
16663;DHT22;8445;51.270;9.434;2023-12-04T00:43:14;-0.60;71.80
16663;DHT22;8445;51.270;9.434;2023-12-04T00:45:40;-0.60;71.80
16663;DHT22;8445;51.270;9.434;2023-12-04T00:48:06;-0.60;71.70
16663;DHT22;8445;51.270;9.434;2023-12-04T00:50:32;-0.60;71.80
16663;DHT22;8445;51.270;9.434;2023-12-04T00:52:58;-0.70;71.80
16663;DHT22;8445;51.270;9.434;2023-12-04T00:55:24;-0.70;71.80
16663;DHT22;8445;51.270;9.434;2023-12-04T00:57:50;-0.60;71.50
16663;DHT22;8445;51.270;9.434;2023-12-04T01:00:16;-0.60;71.20
16663;DHT22;8445;51.270;9.434;2023-12-04T01:02:42;-0.60;71.20
16663;DHT22;8445;51.270;9.434;2023-12-04T01:05:08;-0.60;71.10
16663;DHT22;8445;51.270;9.434;2023-12-04T01:07:34;-0.60;71.00
16663;DHT22;8445;51.270;9.434;2023-12-04T01:10:00;-0.60;71.10
16663;DHT22;8445;51.270;9.434;2023-12-04T01:12:26;-0.60;70.90
16663;DHT22;8445;51.270;9.434;2023-12-04T01:14:52;-0.60;70.90
16663;DHT22;8445;51.270;9.434;2023-12-04T01:17:18;-0.60;70.90
16663;DHT22;8445;51.270;9.434;2023-12-04T01:19:44;-0.60;70.80
16663;DHT22;8445;51.270;9.434;2023-12-04T01:22:10;-0.60;70.70
16663;DHT22;8445;51.270;9.434;2023-12-04T01:24:36;-0.60;70.70
16663;DHT22;8445;51.270;9.434;2023-12-04T01:27:02;-0.60;70.70
16663;DHT22;8445;51.270;9.434;2023-12-04T01:29:28;-0.60;70.50
16663;DHT22;8445;51.270;9.434;2023-12-04T01:31:54;-0.60;70.40
16663;DHT22;8445;51.270;9.434;2023-12-04T01:34:20;-0.60;70.50
16663;DHT22;8445;51.270;9.434;2023-12-04T01:36:46;-0.60;70.50
16663;DHT22;8445;51.270;9.434;2023-12-04T01:39:12;-0.60;70.30
16663;DHT22;8445;51.270;9.434;2023-12-04T01:41:38;-0.60;70.30
16663;DHT22;8445;51.270;9.434;2023-12-04T01:44:03;-0.60;70.20
16663;DHT22;8445;51.270;9.434;2023-12-04T01:46:29;-0.60;70.10
16663;DHT22;8445;51.270;9.434;2023-12-04T01:48:56;-0.60;70.00
16663;DHT22;8445;51.270;9.434;2023-12-04T01:51:22;-0.60;69.90
16663;DHT22;8445;51.270;9.434;2023-12-04T01:53:50;-0.60;69.70
16663;DHT22;8445;51.270;9.434;2023-12-04T01:56:17;-0.60;69.50
16663;DHT22;8445;51.270;9.434;2023-12-04T01:58:43;-0.50;69.30
16663;DHT22;8445;51.270;9.434;2023-12-04T02:01:10;-0.60;69.40
16663;DHT22;8445;51.270;9.434;2023-12-04T02:03:37;-0.60;69.50
16663;DHT22;8445;51.270;9.434;2023-12-04T02:06:04;-0.50;69.20
16663;DHT22;8445;51.270;9.434;2023-12-04T02:08:31;-0.60;69.20
16663;DHT22;8445;51.270;9.434;2023-12-04T02:10:57;-0.60;69.50
16663;DHT22;8445;51.270;9.434;2023-12-04T02:13:22;-0.60;69.60
16663;DHT22;8445;51.270;9.434;2023-12-04T02:15:51;-0.60;69.50
16663;DHT22;8445;51.270;9.434;2023-12-04T02:18:20;-0.60;69.50
16663;DHT22;8445;51.270;9.434;2023-12-04T02:20:48;-0.60;69.40
16663;DHT22;8445;51.270;9.434;2023-12-04T02:23:14;-0.60;69.50
16663;DHT22;8445;51.270;9.434;2023-12-04T02:25:40;-0.70;69.50
16663;DHT22;8445;51.270;9.434;2023-12-04T02:28:08;-0.70;69.60
16663;DHT22;8445;51.270;9.434;2023-12-04T02:30:41;-0.70;69.70
16663;DHT22;8445;51.270;9.434;2023-12-04T02:33:10;-0.70;69.60
16663;DHT22;8445;51.270;9.434;2023-12-04T02:35:39;-0.70;69.40
16663;DHT22;8445;51.270;9.434;2023-12-04T02:38:07;-0.70;69.50
16663;DHT22;8445;51.270;9.434;2023-12-04T02:40:34;-0.70;69.50
16663;DHT22;8445;51.270;9.434;2023-12-04T02:43:00;-0.70;69.60
16663;DHT22;8445;51.270;9.434;2023-12-04T02:45:26;-0.70;69.50
16663;DHT22;8445;51.270;9.434;2023-12-04T02:47:52;-0.80;69.60
16663;DHT22;8445;51.270;9.434;2023-12-04T02:50:18;-0.90;69.50
16663;DHT22;8445;51.270;9.434;2023-12-04T02:52:44;-0.90;69.60
16663;DHT22;8445;51.270;9.434;2023-12-04T02:55:09;-0.90;69.60
16663;DHT22;8445;51.270;9.434;2023-12-04T02:57:35;-1.00;69.60
16663;DHT22;8445;51.270;9.434;2023-12-04T03:00:01;-1.00;69.50
16663;DHT22;8445;51.270;9.434;2023-12-04T03:02:29;-1.00;69.50
16663;DHT22;8445;51.270;9.434;2023-12-04T03:04:55;-1.10;69.60
16663;DHT22;8445;51.270;9.434;2023-12-04T03:07:20;-1.10;69.80
16663;DHT22;8445;51.270;9.434;2023-12-04T03:09:48;-1.10;69.90
16663;DHT22;8445;51.270;9.434;2023-12-04T03:12:14;-1.10;69.90
16663;DHT22;8445;51.270;9.434;2023-12-04T03:14:39;-1.10;69.70
16663;DHT22;8445;51.270;9.434;2023-12-04T03:17:06;-1.10;69.60
16663;DHT22;8445;51.270;9.434;2023-12-04T03:19:32;-1.20;69.70
16663;DHT22;8445;51.270;9.434;2023-12-04T03:21:57;-1.30;69.70
16663;DHT22;8445;51.270;9.434;2023-12-04T03:24:23;-1.30;69.70
16663;DHT22;8445;51.270;9.434;2023-12-04T03:26:49;-1.40;69.80
16663;DHT22;8445;51.270;9.434;2023-12-04T03:29:15;-1.50;69.90
16663;DHT22;8445;51.270;9.434;2023-12-04T03:31:41;-1.50;69.90
16663;DHT22;8445;51.270;9.434;2023-12-04T03:34:07;-1.50;70.10
16663;DHT22;8445;51.270;9.434;2023-12-04T03:36:33;-1.60;70.30
16663;DHT22;8445;51.270;9.434;2023-12-04T03:38:59;-1.60;70.50
16663;DHT22;8445;51.270;9.434;2023-12-04T03:41:24;-1.70;70.40
16663;DHT22;8445;51.270;9.434;2023-12-04T03:43:50;-1.70;70.40
16663;DHT22;8445;51.270;9.434;2023-12-04T03:46:16;-1.70;70.60
16663;DHT22;8445;51.270;9.434;2023-12-04T03:48:42;-1.70;70.70
16663;DHT22;8445;51.270;9.434;2023-12-04T03:51:08;-1.70;70.90
16663;DHT22;8445;51.270;9.434;2023-12-04T03:53:34;-1.70;71.00
16663;DHT22;8445;51.270;9.434;2023-12-04T03:56:00;-1.70;71.00
16663;DHT22;8445;51.270;9.434;2023-12-04T03:58:26;-1.70;71.00
16663;DHT22;8445;51.270;9.434;2023-12-04T04:00:52;-1.70;71.00
16663;DHT22;8445;51.270;9.434;2023-12-04T04:03:18;-1.70;71.10
16663;DHT22;8445;51.270;9.434;2023-12-04T04:05:44;-1.70;71.00
16663;DHT22;8445;51.270;9.434;2023-12-04T04:08:10;-1.70;71.00
16663;DHT22;8445;51.270;9.434;2023-12-04T04:10:38;-1.60;71.00
16663;DHT22;8445;51.270;9.434;2023-12-04T04:13:04;-1.70;71.10
16663;DHT22;8445;51.270;9.434;2023-12-04T04:15:30;-1.70;71.10
16663;DHT22;8445;51.270;9.434;2023-12-04T04:17:56;-1.70;71.20
16663;DHT22;8445;51.270;9.434;2023-12-04T04:20:22;-1.70;71.20
16663;DHT22;8445;51.270;9.434;2023-12-04T04:22:48;-1.70;71.30
16663;DHT22;8445;51.270;9.434;2023-12-04T04:25:15;-1.60;71.20
16663;DHT22;8445;51.270;9.434;2023-12-04T04:27:41;-1.60;71.30
16663;DHT22;8445;51.270;9.434;2023-12-04T04:30:07;-1.60;71.20
16663;DHT22;8445;51.270;9.434;2023-12-04T04:32:34;-1.60;71.20
16663;DHT22;8445;51.270;9.434;2023-12-04T04:35:00;-1.60;71.20
16663;DHT22;8445;51.270;9.434;2023-12-04T04:37:26;-1.60;71.30
16663;DHT22;8445;51.270;9.434;2023-12-04T04:39:51;-1.60;71.40
16663;DHT22;8445;51.270;9.434;2023-12-04T04:42:17;-1.60;71.30
16663;DHT22;8445;51.270;9.434;2023-12-04T04:44:43;-1.50;71.00
16663;DHT22;8445;51.270;9.434;2023-12-04T04:47:09;-1.50;71.10
16663;DHT22;8445;51.270;9.434;2023-12-04T04:49:35;-1.50;71.00
16663;DHT22;8445;51.270;9.434;2023-12-04T04:52:01;-1.50;71.00
16663;DHT22;8445;51.270;9.434;2023-12-04T04:57:30;-1.50;71.00
16663;DHT22;8445;51.270;9.434;2023-12-04T04:59:55;-1.50;71.00
16663;DHT22;8445;51.270;9.434;2023-12-04T05:02:21;-1.50;71.00
16663;DHT22;8445;51.270;9.434;2023-12-04T05:04:47;-1.50;71.00
16663;DHT22;8445;51.270;9.434;2023-12-04T05:07:13;-1.50;70.90
16663;DHT22;8445;51.270;9.434;2023-12-04T05:09:39;-1.50;70.90
16663;DHT22;8445;51.270;9.434;2023-12-04T05:12:05;-1.50;71.00
16663;DHT22;8445;51.270;9.434;2023-12-04T05:14:31;-1.50;70.90
16663;DHT22;8445;51.270;9.434;2023-12-04T05:16:57;-1.40;70.80
16663;DHT22;8445;51.270;9.434;2023-12-04T05:19:23;-1.40;70.80
16663;DHT22;8445;51.270;9.434;2023-12-04T05:21:49;-1.40;70.80
16663;DHT22;8445;51.270;9.434;2023-12-04T05:24:15;-1.40;70.90
16663;DHT22;8445;51.270;9.434;2023-12-04T05:26:41;-1.40;70.90
16663;DHT22;8445;51.270;9.434;2023-12-04T05:29:07;-1.30;70.90
16663;DHT22;8445;51.270;9.434;2023-12-04T05:31:32;-1.30;70.90
16663;DHT22;8445;51.270;9.434;2023-12-04T05:33:58;-1.30;70.80
16663;DHT22;8445;51.270;9.434;2023-12-04T05:36:24;-1.30;70.80
16663;DHT22;8445;51.270;9.434;2023-12-04T05:38:50;-1.30;70.90
16663;DHT22;8445;51.270;9.434;2023-12-04T05:41:19;-1.30;70.80
16663;DHT22;8445;51.270;9.434;2023-12-04T05:43:45;-1.30;70.80
16663;DHT22;8445;51.270;9.434;2023-12-04T05:46:11;-1.30;70.70
16663;DHT22;8445;51.270;9.434;2023-12-04T05:48:36;-1.30;70.70
16663;DHT22;8445;51.270;9.434;2023-12-04T05:51:02;-1.30;70.70
16663;DHT22;8445;51.270;9.434;2023-12-04T05:53:29;-1.30;70.70
16663;DHT22;8445;51.270;9.434;2023-12-04T05:55:54;-1.30;70.70
16663;DHT22;8445;51.270;9.434;2023-12-04T05:58:20;-1.30;70.70
16663;DHT22;8445;51.270;9.434;2023-12-04T06:00:46;-1.30;70.70
16663;DHT22;8445;51.270;9.434;2023-12-04T06:03:12;-1.30;70.70
16663;DHT22;8445;51.270;9.434;2023-12-04T06:05:38;-1.30;70.70
16663;DHT22;8445;51.270;9.434;2023-12-04T06:08:04;-1.30;70.70
16663;DHT22;8445;51.270;9.434;2023-12-04T06:10:30;-1.30;70.70
16663;DHT22;8445;51.270;9.434;2023-12-04T06:12:56;-1.30;70.60
16663;DHT22;8445;51.270;9.434;2023-12-04T06:15:22;-1.30;70.60
16663;DHT22;8445;51.270;9.434;2023-12-04T06:17:48;-1.30;70.50
16663;DHT22;8445;51.270;9.434;2023-12-04T06:20:14;-1.30;70.50
16663;DHT22;8445;51.270;9.434;2023-12-04T06:22:41;-1.30;70.60
16663;DHT22;8445;51.270;9.434;2023-12-04T06:25:07;-1.30;70.60
16663;DHT22;8445;51.270;9.434;2023-12-04T06:27:34;-1.30;70.60
16663;DHT22;8445;51.270;9.434;2023-12-04T06:30:02;-1.30;70.50
16663;DHT22;8445;51.270;9.434;2023-12-04T06:32:29;-1.30;70.50
16663;DHT22;8445;51.270;9.434;2023-12-04T06:34:55;-1.30;70.40
16663;DHT22;8445;51.270;9.434;2023-12-04T06:37:21;-1.30;70.40
16663;DHT22;8445;51.270;9.434;2023-12-04T06:39:48;-1.30;70.50
16663;DHT22;8445;51.270;9.434;2023-12-04T06:42:18;-1.30;70.50
16663;DHT22;8445;51.270;9.434;2023-12-04T06:44:45;-1.30;70.60
16663;DHT22;8445;51.270;9.434;2023-12-04T06:47:19;-1.30;70.40
16663;DHT22;8445;51.270;9.434;2023-12-04T06:49:48;-1.40;70.60
16663;DHT22;8445;51.270;9.434;2023-12-04T06:52:14;-1.50;70.70
16663;DHT22;8445;51.270;9.434;2023-12-04T06:54:40;-1.50;70.60
16663;DHT22;8445;51.270;9.434;2023-12-04T06:57:06;-1.40;70.70
16663;DHT22;8445;51.270;9.434;2023-12-04T06:59:32;-1.50;70.70
16663;DHT22;8445;51.270;9.434;2023-12-04T07:01:58;-1.40;70.70
16663;DHT22;8445;51.270;9.434;2023-12-04T07:04:23;-1.40;70.70
16663;DHT22;8445;51.270;9.434;2023-12-04T07:06:49;-1.30;70.80
16663;DHT22;8445;51.270;9.434;2023-12-04T07:09:16;-1.30;70.80
16663;DHT22;8445;51.270;9.434;2023-12-04T07:11:43;-1.30;70.80
16663;DHT22;8445;51.270;9.434;2023-12-04T07:14:09;-1.30;70.80
16663;DHT22;8445;51.270;9.434;2023-12-04T07:16:43;-1.20;70.70
16663;DHT22;8445;51.270;9.434;2023-12-04T07:19:09;-1.10;70.60
16663;DHT22;8445;51.270;9.434;2023-12-04T07:21:36;-1.10;70.70
16663;DHT22;8445;51.270;9.434;2023-12-04T07:24:03;-1.10;70.70
16663;DHT22;8445;51.270;9.434;2023-12-04T07:26:32;-1.10;70.70
16663;DHT22;8445;51.270;9.434;2023-12-04T07:28:59;-1.10;70.60
16663;DHT22;8445;51.270;9.434;2023-12-04T07:31:25;-1.00;70.60
16663;DHT22;8445;51.270;9.434;2023-12-04T07:33:53;-1.00;70.50
16663;DHT22;8445;51.270;9.434;2023-12-04T07:36:20;-1.00;70.40
16663;DHT22;8445;51.270;9.434;2023-12-04T07:38:46;-0.90;70.40
16663;DHT22;8445;51.270;9.434;2023-12-04T07:41:12;-0.90;70.50
16663;DHT22;8445;51.270;9.434;2023-12-04T07:43:39;-0.90;70.40
16663;DHT22;8445;51.270;9.434;2023-12-04T07:46:05;-0.90;70.20
16663;DHT22;8445;51.270;9.434;2023-12-04T07:48:31;-0.80;70.20
16663;DHT22;8445;51.270;9.434;2023-12-04T07:50:57;-0.80;70.00
16663;DHT22;8445;51.270;9.434;2023-12-04T07:53:23;-0.70;69.70
16663;DHT22;8445;51.270;9.434;2023-12-04T07:55:49;-0.70;69.60
16663;DHT22;8445;51.270;9.434;2023-12-04T07:58:17;-0.70;69.40
16663;DHT22;8445;51.270;9.434;2023-12-04T08:00:47;-0.70;69.30
16663;DHT22;8445;51.270;9.434;2023-12-04T08:03:13;-0.70;69.20
16663;DHT22;8445;51.270;9.434;2023-12-04T08:05:39;-0.60;69.10
16663;DHT22;8445;51.270;9.434;2023-12-04T08:08:05;-0.60;68.90
16663;DHT22;8445;51.270;9.434;2023-12-04T08:10:31;-0.60;68.90
16663;DHT22;8445;51.270;9.434;2023-12-04T08:12:57;-0.60;69.00
16663;DHT22;8445;51.270;9.434;2023-12-04T08:15:24;-0.50;69.10
16663;DHT22;8445;51.270;9.434;2023-12-04T08:17:50;-0.50;69.20
16663;DHT22;8445;51.270;9.434;2023-12-04T08:20:16;-0.40;69.20
16663;DHT22;8445;51.270;9.434;2023-12-04T08:22:42;-0.30;69.10
16663;DHT22;8445;51.270;9.434;2023-12-04T08:25:11;-0.30;68.90
16663;DHT22;8445;51.270;9.434;2023-12-04T08:27:37;-0.20;68.80
16663;DHT22;8445;51.270;9.434;2023-12-04T08:30:04;-0.10;68.60
16663;DHT22;8445;51.270;9.434;2023-12-04T08:32:31;-0.10;68.40
16663;DHT22;8445;51.270;9.434;2023-12-04T08:34:57;0.00;68.20
16663;DHT22;8445;51.270;9.434;2023-12-04T08:37:25;0.00;68.10
16663;DHT22;8445;51.270;9.434;2023-12-04T08:39:51;0.00;68.20
16663;DHT22;8445;51.270;9.434;2023-12-04T08:42:17;0.10;68.10
16663;DHT22;8445;51.270;9.434;2023-12-04T08:44:43;0.20;67.50
16663;DHT22;8445;51.270;9.434;2023-12-04T08:47:11;0.20;67.20
16663;DHT22;8445;51.270;9.434;2023-12-04T08:49:37;0.30;67.40
16663;DHT22;8445;51.270;9.434;2023-12-04T08:52:06;0.30;67.80
16663;DHT22;8445;51.270;9.434;2023-12-04T08:54:33;0.40;67.70
16663;DHT22;8445;51.270;9.434;2023-12-04T08:56:59;0.50;67.50
16663;DHT22;8445;51.270;9.434;2023-12-04T08:59:25;0.60;67.60
16663;DHT22;8445;51.270;9.434;2023-12-04T09:01:52;0.60;67.30
16663;DHT22;8445;51.270;9.434;2023-12-04T09:04:17;0.70;66.40
16663;DHT22;8445;51.270;9.434;2023-12-04T09:06:43;0.70;66.40
16663;DHT22;8445;51.270;9.434;2023-12-04T09:09:09;0.80;66.60
16663;DHT22;8445;51.270;9.434;2023-12-04T09:11:41;0.80;66.20
16663;DHT22;8445;51.270;9.434;2023-12-04T09:14:08;0.80;66.10
16663;DHT22;8445;51.270;9.434;2023-12-04T09:16:34;0.80;65.80
16663;DHT22;8445;51.270;9.434;2023-12-04T09:19:00;0.80;65.70
16663;DHT22;8445;51.270;9.434;2023-12-04T09:21:26;0.80;65.90
16663;DHT22;8445;51.270;9.434;2023-12-04T09:23:52;0.90;66.00
16663;DHT22;8445;51.270;9.434;2023-12-04T09:26:19;1.00;66.10
16663;DHT22;8445;51.270;9.434;2023-12-04T09:28:45;1.00;66.00
16663;DHT22;8445;51.270;9.434;2023-12-04T09:31:11;1.00;66.10
16663;DHT22;8445;51.270;9.434;2023-12-04T09:33:37;1.10;66.00
16663;DHT22;8445;51.270;9.434;2023-12-04T09:36:03;1.20;66.10
16663;DHT22;8445;51.270;9.434;2023-12-04T09:38:29;1.30;66.10
16663;DHT22;8445;51.270;9.434;2023-12-04T09:40:58;1.40;66.20
16663;DHT22;8445;51.270;9.434;2023-12-04T09:43:31;1.40;66.00
16663;DHT22;8445;51.270;9.434;2023-12-04T09:45:58;1.50;65.40
16663;DHT22;8445;51.270;9.434;2023-12-04T09:48:26;1.60;65.00
16663;DHT22;8445;51.270;9.434;2023-12-04T09:50:53;1.60;65.00
16663;DHT22;8445;51.270;9.434;2023-12-04T09:53:20;1.60;65.20
16663;DHT22;8445;51.270;9.434;2023-12-04T09:55:49;1.60;65.00
16663;DHT22;8445;51.270;9.434;2023-12-04T09:58:15;1.70;64.90
16663;DHT22;8445;51.270;9.434;2023-12-04T10:00:47;1.70;64.40
16663;DHT22;8445;51.270;9.434;2023-12-04T10:03:13;1.70;64.50
16663;DHT22;8445;51.270;9.434;2023-12-04T10:05:44;1.70;64.20
16663;DHT22;8445;51.270;9.434;2023-12-04T10:08:13;1.70;63.80
16663;DHT22;8445;51.270;9.434;2023-12-04T10:10:39;1.60;63.70
16663;DHT22;8445;51.270;9.434;2023-12-04T10:13:05;1.60;63.00
16663;DHT22;8445;51.270;9.434;2023-12-04T10:15:32;1.60;63.20
16663;DHT22;8445;51.270;9.434;2023-12-04T10:17:58;1.60;63.70
16663;DHT22;8445;51.270;9.434;2023-12-04T10:20:24;1.70;63.70
16663;DHT22;8445;51.270;9.434;2023-12-04T10:22:57;1.70;63.20
16663;DHT22;8445;51.270;9.434;2023-12-04T10:25:26;1.80;63.40
16663;DHT22;8445;51.270;9.434;2023-12-04T10:28:10;1.90;63.70
16663;DHT22;8445;51.270;9.434;2023-12-04T10:30:38;2.00;63.60
16663;DHT22;8445;51.270;9.434;2023-12-04T10:33:06;2.10;63.70
16663;DHT22;8445;51.270;9.434;2023-12-04T10:35:34;2.20;63.70
16663;DHT22;8445;51.270;9.434;2023-12-04T10:38:02;2.30;63.80
16663;DHT22;8445;51.270;9.434;2023-12-04T10:40:30;2.50;63.50
16663;DHT22;8445;51.270;9.434;2023-12-04T10:45:39;2.70;63.30
16663;DHT22;8445;51.270;9.434;2023-12-04T10:48:07;2.80;62.70
16663;DHT22;8445;51.270;9.434;2023-12-04T10:50:34;2.90;62.90
16663;DHT22;8445;51.270;9.434;2023-12-04T10:53:04;2.90;62.50
16663;DHT22;8445;51.270;9.434;2023-12-04T10:55:31;3.00;61.00
16663;DHT22;8445;51.270;9.434;2023-12-04T10:57:59;2.90;60.90
16663;DHT22;8445;51.270;9.434;2023-12-04T11:00:30;2.90;61.10
16663;DHT22;8445;51.270;9.434;2023-12-04T11:03:09;2.90;61.00
16663;DHT22;8445;51.270;9.434;2023-12-04T11:05:41;2.90;60.80
16663;DHT22;8445;51.270;9.434;2023-12-04T11:08:13;2.90;60.50
16663;DHT22;8445;51.270;9.434;2023-12-04T11:10:59;2.90;60.30
16663;DHT22;8445;51.270;9.434;2023-12-04T11:13:28;2.90;60.00
16663;DHT22;8445;51.270;9.434;2023-12-04T11:16:26;2.80;60.50
16663;DHT22;8445;51.270;9.434;2023-12-04T11:19:27;2.80;60.30
16663;DHT22;8445;51.270;9.434;2023-12-04T11:21:58;2.80;60.20
16663;DHT22;8445;51.270;9.434;2023-12-04T11:24:25;2.80;60.20
16663;DHT22;8445;51.270;9.434;2023-12-04T11:26:52;2.80;60.20
16663;DHT22;8445;51.270;9.434;2023-12-04T11:29:19;2.80;59.60
16663;DHT22;8445;51.270;9.434;2023-12-04T11:31:45;2.80;59.50
16663;DHT22;8445;51.270;9.434;2023-12-04T11:34:12;2.90;59.50
16663;DHT22;8445;51.270;9.434;2023-12-04T11:36:38;2.90;59.40
16663;DHT22;8445;51.270;9.434;2023-12-04T11:39:09;3.00;59.40
16663;DHT22;8445;51.270;9.434;2023-12-04T11:41:36;3.10;59.80
16663;DHT22;8445;51.270;9.434;2023-12-04T11:44:12;3.10;59.90
16663;DHT22;8445;51.270;9.434;2023-12-04T11:47:04;3.10;59.70
16663;DHT22;8445;51.270;9.434;2023-12-04T11:49:32;3.20;59.70
16663;DHT22;8445;51.270;9.434;2023-12-04T11:51:59;3.30;59.90
16663;DHT22;8445;51.270;9.434;2023-12-04T11:54:28;3.40;59.70
16663;DHT22;8445;51.270;9.434;2023-12-04T12:02:39;3.70;59.60
16663;DHT22;8445;51.270;9.434;2023-12-04T12:05:08;3.80;59.20
16663;DHT22;8445;51.270;9.434;2023-12-04T12:07:34;3.90;59.30
16663;DHT22;8445;51.270;9.434;2023-12-04T12:10:00;3.90;58.40
16663;DHT22;8445;51.270;9.434;2023-12-04T12:12:27;3.90;58.10
16663;DHT22;8445;51.270;9.434;2023-12-04T12:14:53;3.90;57.90
16663;DHT22;8445;51.270;9.434;2023-12-04T12:17:19;3.90;58.20
16663;DHT22;8445;51.270;9.434;2023-12-04T12:19:45;3.90;58.40
16663;DHT22;8445;51.270;9.434;2023-12-04T12:22:11;3.90;57.90
16663;DHT22;8445;51.270;9.434;2023-12-04T12:24:37;3.90;57.10
16663;DHT22;8445;51.270;9.434;2023-12-04T12:27:04;3.90;57.30
16663;DHT22;8445;51.270;9.434;2023-12-04T12:29:30;3.90;58.00
16663;DHT22;8445;51.270;9.434;2023-12-04T12:31:56;4.00;58.20
16663;DHT22;8445;51.270;9.434;2023-12-04T12:34:25;4.00;57.60
16663;DHT22;8445;51.270;9.434;2023-12-04T12:36:52;4.10;57.30
16663;DHT22;8445;51.270;9.434;2023-12-04T12:39:18;4.10;57.90
16663;DHT22;8445;51.270;9.434;2023-12-04T12:41:51;4.10;57.10
16663;DHT22;8445;51.270;9.434;2023-12-04T12:44:17;4.10;57.20
16663;DHT22;8445;51.270;9.434;2023-12-04T12:46:47;4.10;56.70
16663;DHT22;8445;51.270;9.434;2023-12-04T12:49:18;4.00;57.40
16663;DHT22;8445;51.270;9.434;2023-12-04T12:51:46;4.00;56.50
16663;DHT22;8445;51.270;9.434;2023-12-04T12:54:12;3.90;57.20
16663;DHT22;8445;51.270;9.434;2023-12-04T12:56:38;3.90;57.70
16663;DHT22;8445;51.270;9.434;2023-12-04T12:59:05;3.90;57.60
16663;DHT22;8445;51.270;9.434;2023-12-04T13:01:37;3.90;57.70
16663;DHT22;8445;51.270;9.434;2023-12-04T13:04:05;3.90;57.60
16663;DHT22;8445;51.270;9.434;2023-12-04T13:06:30;3.90;57.20
16663;DHT22;8445;51.270;9.434;2023-12-04T13:08:57;3.80;57.10
16663;DHT22;8445;51.270;9.434;2023-12-04T13:11:25;3.70;57.30
16663;DHT22;8445;51.270;9.434;2023-12-04T13:13:50;3.70;57.50
16663;DHT22;8445;51.270;9.434;2023-12-04T13:16:16;3.60;57.60
16663;DHT22;8445;51.270;9.434;2023-12-04T13:18:42;3.60;57.20
16663;DHT22;8445;51.270;9.434;2023-12-04T13:21:08;3.50;57.30
16663;DHT22;8445;51.270;9.434;2023-12-04T13:23:36;3.50;57.60
16663;DHT22;8445;51.270;9.434;2023-12-04T13:26:02;3.50;57.90
16663;DHT22;8445;51.270;9.434;2023-12-04T13:28:29;3.50;57.80
16663;DHT22;8445;51.270;9.434;2023-12-04T13:30:55;3.40;58.00
16663;DHT22;8445;51.270;9.434;2023-12-04T13:33:21;3.40;58.10
16663;DHT22;8445;51.270;9.434;2023-12-04T13:35:47;3.30;58.20
16663;DHT22;8445;51.270;9.434;2023-12-04T13:38:13;3.30;58.30
16663;DHT22;8445;51.270;9.434;2023-12-04T13:40:42;3.30;58.20
16663;DHT22;8445;51.270;9.434;2023-12-04T13:43:15;3.30;58.30
16663;DHT22;8445;51.270;9.434;2023-12-04T13:45:59;3.30;58.00
16663;DHT22;8445;51.270;9.434;2023-12-04T13:48:29;3.20;57.50
16663;DHT22;8445;51.270;9.434;2023-12-04T13:50:56;3.10;56.70
16663;DHT22;8445;51.270;9.434;2023-12-04T13:53:22;3.10;56.80
16663;DHT22;8445;51.270;9.434;2023-12-04T13:55:57;3.00;56.70
16663;DHT22;8445;51.270;9.434;2023-12-04T13:58:26;2.90;56.60
16663;DHT22;8445;51.270;9.434;2023-12-04T14:01:08;2.80;56.90
16663;DHT22;8445;51.270;9.434;2023-12-04T14:03:44;2.70;57.30
16663;DHT22;8445;51.270;9.434;2023-12-04T14:06:10;2.70;57.50
16663;DHT22;8445;51.270;9.434;2023-12-04T14:08:37;2.70;57.30
16663;DHT22;8445;51.270;9.434;2023-12-04T14:11:04;2.70;57.60
16663;DHT22;8445;51.270;9.434;2023-12-04T14:13:33;2.60;57.70
16663;DHT22;8445;51.270;9.434;2023-12-04T14:16:00;2.50;57.50
16663;DHT22;8445;51.270;9.434;2023-12-04T14:18:28;2.50;57.80
16663;DHT22;8445;51.270;9.434;2023-12-04T14:20:56;2.50;58.00
16663;DHT22;8445;51.270;9.434;2023-12-04T14:23:22;2.50;57.80
16663;DHT22;8445;51.270;9.434;2023-12-04T14:25:48;2.40;57.60
16663;DHT22;8445;51.270;9.434;2023-12-04T14:28:14;2.30;57.80
16663;DHT22;8445;51.270;9.434;2023-12-04T14:30:40;2.30;57.80
16663;DHT22;8445;51.270;9.434;2023-12-04T14:33:07;2.20;57.90
16663;DHT22;8445;51.270;9.434;2023-12-04T14:35:35;2.20;57.80
16663;DHT22;8445;51.270;9.434;2023-12-04T14:38:05;2.10;57.90
16663;DHT22;8445;51.270;9.434;2023-12-04T14:40:31;2.10;58.00
16663;DHT22;8445;51.270;9.434;2023-12-04T14:42:57;2.00;58.30
16663;DHT22;8445;51.270;9.434;2023-12-04T14:45:23;1.90;58.30
16663;DHT22;8445;51.270;9.434;2023-12-04T14:47:49;1.90;58.50
16663;DHT22;8445;51.270;9.434;2023-12-04T14:50:17;1.90;58.60
16663;DHT22;8445;51.270;9.434;2023-12-04T14:52:44;1.90;58.60
16663;DHT22;8445;51.270;9.434;2023-12-04T14:55:17;1.80;58.50
16663;DHT22;8445;51.270;9.434;2023-12-04T15:00:47;1.80;58.70
16663;DHT22;8445;51.270;9.434;2023-12-04T15:03:39;1.80;58.80
16663;DHT22;8445;51.270;9.434;2023-12-04T15:06:20;1.80;58.70
16663;DHT22;8445;51.270;9.434;2023-12-04T15:08:55;1.70;58.80
16663;DHT22;8445;51.270;9.434;2023-12-04T15:11:40;1.70;59.00
16663;DHT22;8445;51.270;9.434;2023-12-04T15:14:08;1.70;59.10
16663;DHT22;8445;51.270;9.434;2023-12-04T15:16:54;1.70;59.20
16663;DHT22;8445;51.270;9.434;2023-12-04T15:19:29;1.60;59.20
16663;DHT22;8445;51.270;9.434;2023-12-04T15:22:02;1.60;59.30
16663;DHT22;8445;51.270;9.434;2023-12-04T15:24:30;1.60;59.40
16663;DHT22;8445;51.270;9.434;2023-12-04T15:26:56;1.60;59.40
16663;DHT22;8445;51.270;9.434;2023-12-04T15:29:22;1.60;59.50
16663;DHT22;8445;51.270;9.434;2023-12-04T15:31:48;1.50;59.50
16663;DHT22;8445;51.270;9.434;2023-12-04T15:34:14;1.50;59.60
16663;DHT22;8445;51.270;9.434;2023-12-04T15:36:41;1.50;59.70
16663;DHT22;8445;51.270;9.434;2023-12-04T15:39:07;1.50;59.80
16663;DHT22;8445;51.270;9.434;2023-12-04T15:41:34;1.50;59.80
16663;DHT22;8445;51.270;9.434;2023-12-04T15:44:00;1.50;59.90
16663;DHT22;8445;51.270;9.434;2023-12-04T15:46:26;1.50;59.80
16663;DHT22;8445;51.270;9.434;2023-12-04T15:48:53;1.50;59.70
16663;DHT22;8445;51.270;9.434;2023-12-04T15:51:19;1.40;59.70
16663;DHT22;8445;51.270;9.434;2023-12-04T15:53:45;1.40;59.70
16663;DHT22;8445;51.270;9.434;2023-12-04T15:56:11;1.40;59.80
16663;DHT22;8445;51.270;9.434;2023-12-04T15:58:37;1.40;60.00
16663;DHT22;8445;51.270;9.434;2023-12-04T16:01:03;1.40;59.80
16663;DHT22;8445;51.270;9.434;2023-12-04T16:03:31;1.30;59.90
16663;DHT22;8445;51.270;9.434;2023-12-04T16:05:57;1.30;60.10
16663;DHT22;8445;51.270;9.434;2023-12-04T16:08:24;1.30;60.10